sensor_id;sensor_type;location;lat;lon;timestamp;P1;durP1;ratioP1;P2;durP2;ratioP2
53533;SDS011;39421;53.204;6.568;2023-07-22T00:01:09;11.00;;;4.50;;
53533;SDS011;39421;53.204;6.568;2023-07-22T00:03:35;10.93;;;4.95;;
53533;SDS011;39421;53.204;6.568;2023-07-22T00:08:31;11.48;;;4.63;;
53533;SDS011;39421;53.204;6.568;2023-07-22T00:10:57;11.60;;;5.00;;
53533;SDS011;39421;53.204;6.568;2023-07-22T00:13:25;12.13;;;4.93;;
53533;SDS011;39421;53.204;6.568;2023-07-22T00:15:52;12.37;;;5.60;;
53533;SDS011;39421;53.204;6.568;2023-07-22T00:18:18;12.70;;;5.20;;
53533;SDS011;39421;53.204;6.568;2023-07-22T00:20:44;12.63;;;5.10;;
53533;SDS011;39421;53.204;6.568;2023-07-22T00:23:11;11.32;;;5.10;;
53533;SDS011;39421;53.204;6.568;2023-07-22T00:25:37;11.38;;;4.90;;
53533;SDS011;39421;53.204;6.568;2023-07-22T00:28:03;12.90;;;4.88;;
53533;SDS011;39421;53.204;6.568;2023-07-22T00:30:29;11.40;;;4.67;;
53533;SDS011;39421;53.204;6.568;2023-07-22T00:32:55;11.00;;;4.80;;
53533;SDS011;39421;53.204;6.568;2023-07-22T00:35:22;12.63;;;4.53;;
53533;SDS011;39421;53.204;6.568;2023-07-22T00:37:48;11.15;;;4.65;;
53533;SDS011;39421;53.204;6.568;2023-07-22T00:40:14;12.23;;;4.60;;
53533;SDS011;39421;53.204;6.568;2023-07-22T00:42:40;11.15;;;4.53;;
53533;SDS011;39421;53.204;6.568;2023-07-22T00:45:07;11.13;;;4.57;;
53533;SDS011;39421;53.204;6.568;2023-07-22T00:47:36;11.30;;;4.60;;
53533;SDS011;39421;53.204;6.568;2023-07-22T00:50:03;11.53;;;4.43;;
53533;SDS011;39421;53.204;6.568;2023-07-22T00:52:31;11.35;;;4.30;;
53533;SDS011;39421;53.204;6.568;2023-07-22T00:54:57;10.32;;;4.10;;
53533;SDS011;39421;53.204;6.568;2023-07-22T00:57:23;11.25;;;4.40;;
53533;SDS011;39421;53.204;6.568;2023-07-22T00:59:49;9.27;;;3.93;;
53533;SDS011;39421;53.204;6.568;2023-07-22T01:02:16;10.75;;;4.15;;
53533;SDS011;39421;53.204;6.568;2023-07-22T01:04:42;11.20;;;4.75;;
53533;SDS011;39421;53.204;6.568;2023-07-22T01:07:08;10.77;;;4.72;;
53533;SDS011;39421;53.204;6.568;2023-07-22T01:09:38;11.05;;;4.82;;
53533;SDS011;39421;53.204;6.568;2023-07-22T01:12:05;12.20;;;4.65;;
53533;SDS011;39421;53.204;6.568;2023-07-22T01:14:41;11.48;;;4.85;;
53533;SDS011;39421;53.204;6.568;2023-07-22T01:17:08;11.63;;;4.13;;
53533;SDS011;39421;53.204;6.568;2023-07-22T01:19:35;11.15;;;4.40;;
53533;SDS011;39421;53.204;6.568;2023-07-22T01:22:04;10.30;;;4.32;;
53533;SDS011;39421;53.204;6.568;2023-07-22T01:24:32;10.57;;;4.20;;
53533;SDS011;39421;53.204;6.568;2023-07-22T01:26:59;11.85;;;4.65;;
53533;SDS011;39421;53.204;6.568;2023-07-22T01:29:25;11.25;;;4.22;;
53533;SDS011;39421;53.204;6.568;2023-07-22T01:31:52;11.00;;;4.30;;
53533;SDS011;39421;53.204;6.568;2023-07-22T01:34:19;10.48;;;4.30;;
53533;SDS011;39421;53.204;6.568;2023-07-22T01:36:46;10.48;;;4.20;;
53533;SDS011;39421;53.204;6.568;2023-07-22T01:39:16;9.48;;;3.83;;
53533;SDS011;39421;53.204;6.568;2023-07-22T01:41:43;11.50;;;4.40;;
53533;SDS011;39421;53.204;6.568;2023-07-22T01:44:09;9.30;;;4.10;;
53533;SDS011;39421;53.204;6.568;2023-07-22T01:46:39;10.63;;;3.88;;
53533;SDS011;39421;53.204;6.568;2023-07-22T01:49:06;10.20;;;3.75;;
53533;SDS011;39421;53.204;6.568;2023-07-22T01:51:35;9.75;;;3.75;;
53533;SDS011;39421;53.204;6.568;2023-07-22T01:54:03;10.57;;;3.90;;
53533;SDS011;39421;53.204;6.568;2023-07-22T01:56:29;9.43;;;3.73;;
53533;SDS011;39421;53.204;6.568;2023-07-22T01:58:55;9.60;;;3.78;;
53533;SDS011;39421;53.204;6.568;2023-07-22T02:01:21;10.48;;;3.50;;
53533;SDS011;39421;53.204;6.568;2023-07-22T02:03:47;10.65;;;3.88;;
53533;SDS011;39421;53.204;6.568;2023-07-22T02:06:13;9.15;;;3.63;;
53533;SDS011;39421;53.204;6.568;2023-07-22T02:08:39;9.63;;;3.77;;
53533;SDS011;39421;53.204;6.568;2023-07-22T02:11:06;8.65;;;3.47;;
53533;SDS011;39421;53.204;6.568;2023-07-22T02:13:34;8.57;;;3.33;;
53533;SDS011;39421;53.204;6.568;2023-07-22T02:16:00;10.18;;;3.65;;
53533;SDS011;39421;53.204;6.568;2023-07-22T02:18:27;10.70;;;3.58;;
53533;SDS011;39421;53.204;6.568;2023-07-22T02:20:53;9.55;;;3.60;;
53533;SDS011;39421;53.204;6.568;2023-07-22T02:23:20;9.68;;;3.40;;
53533;SDS011;39421;53.204;6.568;2023-07-22T02:25:50;9.25;;;3.45;;
53533;SDS011;39421;53.204;6.568;2023-07-22T02:28:16;8.65;;;3.35;;
53533;SDS011;39421;53.204;6.568;2023-07-22T02:30:46;9.15;;;3.58;;
53533;SDS011;39421;53.204;6.568;2023-07-22T02:33:13;9.07;;;3.43;;
53533;SDS011;39421;53.204;6.568;2023-07-22T02:35:40;8.68;;;3.38;;
53533;SDS011;39421;53.204;6.568;2023-07-22T02:38:06;9.10;;;3.50;;
53533;SDS011;39421;53.204;6.568;2023-07-22T02:40:39;10.47;;;3.67;;
53533;SDS011;39421;53.204;6.568;2023-07-22T02:43:05;10.27;;;3.67;;
53533;SDS011;39421;53.204;6.568;2023-07-22T02:45:32;9.83;;;3.57;;
53533;SDS011;39421;53.204;6.568;2023-07-22T02:47:58;9.53;;;3.63;;
53533;SDS011;39421;53.204;6.568;2023-07-22T02:50:24;8.77;;;3.55;;
53533;SDS011;39421;53.204;6.568;2023-07-22T02:52:51;10.65;;;3.92;;
53533;SDS011;39421;53.204;6.568;2023-07-22T02:55:17;9.75;;;3.70;;
53533;SDS011;39421;53.204;6.568;2023-07-22T02:57:43;11.15;;;3.90;;
53533;SDS011;39421;53.204;6.568;2023-07-22T03:00:11;10.43;;;3.70;;
53533;SDS011;39421;53.204;6.568;2023-07-22T03:02:38;10.10;;;3.80;;
53533;SDS011;39421;53.204;6.568;2023-07-22T03:05:05;9.88;;;4.18;;
53533;SDS011;39421;53.204;6.568;2023-07-22T03:07:35;10.10;;;3.88;;
53533;SDS011;39421;53.204;6.568;2023-07-22T03:10:02;9.43;;;3.88;;
53533;SDS011;39421;53.204;6.568;2023-07-22T03:12:28;9.73;;;3.92;;
53533;SDS011;39421;53.204;6.568;2023-07-22T03:14:54;10.80;;;4.07;;
53533;SDS011;39421;53.204;6.568;2023-07-22T03:17:20;10.35;;;3.75;;
53533;SDS011;39421;53.204;6.568;2023-07-22T03:19:46;12.15;;;4.10;;
53533;SDS011;39421;53.204;6.568;2023-07-22T03:22:13;10.07;;;4.00;;
53533;SDS011;39421;53.204;6.568;2023-07-22T03:24:41;10.68;;;4.20;;
53533;SDS011;39421;53.204;6.568;2023-07-22T03:27:07;10.63;;;4.50;;
53533;SDS011;39421;53.204;6.568;2023-07-22T03:29:33;10.88;;;4.60;;
53533;SDS011;39421;53.204;6.568;2023-07-22T03:32:00;10.45;;;4.40;;
53533;SDS011;39421;53.204;6.568;2023-07-22T03:34:26;11.57;;;4.38;;
53533;SDS011;39421;53.204;6.568;2023-07-22T03:36:53;9.77;;;3.95;;
53533;SDS011;39421;53.204;6.568;2023-07-22T03:39:19;11.17;;;4.10;;
53533;SDS011;39421;53.204;6.568;2023-07-22T03:41:46;10.98;;;3.92;;
53533;SDS011;39421;53.204;6.568;2023-07-22T03:44:12;10.00;;;3.85;;
53533;SDS011;39421;53.204;6.568;2023-07-22T03:46:38;11.13;;;4.03;;
53533;SDS011;39421;53.204;6.568;2023-07-22T03:49:04;10.80;;;4.47;;
53533;SDS011;39421;53.204;6.568;2023-07-22T03:51:30;10.57;;;4.30;;
53533;SDS011;39421;53.204;6.568;2023-07-22T03:53:57;12.32;;;4.60;;
53533;SDS011;39421;53.204;6.568;2023-07-22T03:56:23;11.23;;;4.57;;
53533;SDS011;39421;53.204;6.568;2023-07-22T03:58:50;11.77;;;4.80;;
53533;SDS011;39421;53.204;6.568;2023-07-22T04:01:16;11.70;;;4.78;;
53533;SDS011;39421;53.204;6.568;2023-07-22T04:03:42;10.95;;;4.05;;
53533;SDS011;39421;53.204;6.568;2023-07-22T04:06:08;9.45;;;4.00;;
53533;SDS011;39421;53.204;6.568;2023-07-22T04:08:34;9.45;;;3.70;;
53533;SDS011;39421;53.204;6.568;2023-07-22T04:11:00;9.55;;;4.05;;
53533;SDS011;39421;53.204;6.568;2023-07-22T04:13:27;10.20;;;3.75;;
53533;SDS011;39421;53.204;6.568;2023-07-22T04:15:53;10.50;;;3.90;;
53533;SDS011;39421;53.204;6.568;2023-07-22T04:18:20;10.30;;;3.90;;
53533;SDS011;39421;53.204;6.568;2023-07-22T04:20:46;9.27;;;3.65;;
53533;SDS011;39421;53.204;6.568;2023-07-22T04:23:15;9.30;;;3.67;;
53533;SDS011;39421;53.204;6.568;2023-07-22T04:25:45;10.07;;;3.58;;
53533;SDS011;39421;53.204;6.568;2023-07-22T04:28:11;9.77;;;3.70;;
53533;SDS011;39421;53.204;6.568;2023-07-22T04:30:37;9.20;;;3.73;;
53533;SDS011;39421;53.204;6.568;2023-07-22T04:33:05;8.50;;;3.80;;
53533;SDS011;39421;53.204;6.568;2023-07-22T04:35:32;11.83;;;4.10;;
53533;SDS011;39421;53.204;6.568;2023-07-22T04:37:58;9.02;;;4.03;;
53533;SDS011;39421;53.204;6.568;2023-07-22T04:40:24;9.85;;;4.20;;
53533;SDS011;39421;53.204;6.568;2023-07-22T04:42:51;11.37;;;4.53;;
53533;SDS011;39421;53.204;6.568;2023-07-22T04:45:17;10.87;;;4.23;;
53533;SDS011;39421;53.204;6.568;2023-07-22T04:47:43;10.90;;;4.40;;
53533;SDS011;39421;53.204;6.568;2023-07-22T04:50:12;11.50;;;4.35;;
53533;SDS011;39421;53.204;6.568;2023-07-22T04:52:38;11.32;;;4.60;;
53533;SDS011;39421;53.204;6.568;2023-07-22T04:55:06;11.18;;;4.80;;
53533;SDS011;39421;53.204;6.568;2023-07-22T04:57:43;11.27;;;4.20;;
53533;SDS011;39421;53.204;6.568;2023-07-22T05:00:10;12.55;;;5.07;;
53533;SDS011;39421;53.204;6.568;2023-07-22T05:02:39;10.90;;;4.90;;
53533;SDS011;39421;53.204;6.568;2023-07-22T05:05:05;11.57;;;4.80;;
53533;SDS011;39421;53.204;6.568;2023-07-22T05:07:32;12.15;;;5.10;;
53533;SDS011;39421;53.204;6.568;2023-07-22T05:09:58;12.52;;;4.85;;
53533;SDS011;39421;53.204;6.568;2023-07-22T05:12:24;12.73;;;4.80;;
53533;SDS011;39421;53.204;6.568;2023-07-22T05:14:50;12.02;;;5.07;;
53533;SDS011;39421;53.204;6.568;2023-07-22T05:17:16;10.93;;;5.20;;
53533;SDS011;39421;53.204;6.568;2023-07-22T05:19:43;11.73;;;4.88;;
53533;SDS011;39421;53.204;6.568;2023-07-22T05:22:09;13.07;;;5.03;;
53533;SDS011;39421;53.204;6.568;2023-07-22T05:24:35;10.80;;;5.13;;
53533;SDS011;39421;53.204;6.568;2023-07-22T05:27:01;12.82;;;5.53;;
53533;SDS011;39421;53.204;6.568;2023-07-22T05:29:28;11.17;;;5.20;;
53533;SDS011;39421;53.204;6.568;2023-07-22T05:31:54;13.55;;;4.97;;
53533;SDS011;39421;53.204;6.568;2023-07-22T05:34:20;12.70;;;5.72;;
53533;SDS011;39421;53.204;6.568;2023-07-22T05:36:46;12.32;;;5.20;;
53533;SDS011;39421;53.204;6.568;2023-07-22T05:39:12;12.73;;;5.47;;
53533;SDS011;39421;53.204;6.568;2023-07-22T05:41:38;11.98;;;5.38;;
53533;SDS011;39421;53.204;6.568;2023-07-22T05:44:04;12.75;;;5.18;;
53533;SDS011;39421;53.204;6.568;2023-07-22T05:46:30;14.55;;;5.80;;
53533;SDS011;39421;53.204;6.568;2023-07-22T05:48:56;12.17;;;5.23;;
53533;SDS011;39421;53.204;6.568;2023-07-22T05:51:23;14.00;;;5.95;;
53533;SDS011;39421;53.204;6.568;2023-07-22T05:53:49;11.70;;;5.32;;
53533;SDS011;39421;53.204;6.568;2023-07-22T05:56:15;12.95;;;5.75;;
53533;SDS011;39421;53.204;6.568;2023-07-22T05:58:41;13.32;;;5.75;;
53533;SDS011;39421;53.204;6.568;2023-07-22T06:01:07;11.93;;;5.60;;
53533;SDS011;39421;53.204;6.568;2023-07-22T06:03:34;11.73;;;5.45;;
53533;SDS011;39421;53.204;6.568;2023-07-22T06:06:00;12.40;;;5.65;;
53533;SDS011;39421;53.204;6.568;2023-07-22T06:08:26;12.63;;;5.75;;
53533;SDS011;39421;53.204;6.568;2023-07-22T06:10:52;12.02;;;5.68;;
53533;SDS011;39421;53.204;6.568;2023-07-22T06:13:21;13.13;;;5.72;;
53533;SDS011;39421;53.204;6.568;2023-07-22T06:15:47;13.20;;;5.32;;
53533;SDS011;39421;53.204;6.568;2023-07-22T06:18:13;12.20;;;5.60;;
53533;SDS011;39421;53.204;6.568;2023-07-22T06:20:39;13.63;;;6.10;;
53533;SDS011;39421;53.204;6.568;2023-07-22T06:23:05;12.25;;;6.10;;
53533;SDS011;39421;53.204;6.568;2023-07-22T06:25:31;14.05;;;6.00;;
53533;SDS011;39421;53.204;6.568;2023-07-22T06:27:58;15.23;;;7.03;;
53533;SDS011;39421;53.204;6.568;2023-07-22T06:30:24;13.10;;;6.20;;
53533;SDS011;39421;53.204;6.568;2023-07-22T06:32:50;13.40;;;6.70;;
53533;SDS011;39421;53.204;6.568;2023-07-22T06:35:16;15.88;;;6.78;;
53533;SDS011;39421;53.204;6.568;2023-07-22T06:37:42;13.93;;;6.53;;
53533;SDS011;39421;53.204;6.568;2023-07-22T06:40:08;13.60;;;6.68;;
53533;SDS011;39421;53.204;6.568;2023-07-22T06:42:35;13.57;;;6.72;;
53533;SDS011;39421;53.204;6.568;2023-07-22T06:45:01;13.93;;;6.63;;
53533;SDS011;39421;53.204;6.568;2023-07-22T06:47:27;13.43;;;6.60;;
53533;SDS011;39421;53.204;6.568;2023-07-22T06:49:53;13.68;;;6.88;;
53533;SDS011;39421;53.204;6.568;2023-07-22T06:52:20;15.45;;;7.13;;
53533;SDS011;39421;53.204;6.568;2023-07-22T06:54:46;14.95;;;7.20;;
53533;SDS011;39421;53.204;6.568;2023-07-22T06:57:12;14.20;;;6.70;;
53533;SDS011;39421;53.204;6.568;2023-07-22T06:59:38;15.20;;;7.53;;
53533;SDS011;39421;53.204;6.568;2023-07-22T07:02:04;16.07;;;7.40;;
53533;SDS011;39421;53.204;6.568;2023-07-22T07:04:30;13.57;;;6.70;;
53533;SDS011;39421;53.204;6.568;2023-07-22T07:06:57;15.77;;;7.20;;
53533;SDS011;39421;53.204;6.568;2023-07-22T07:09:24;15.15;;;7.63;;
53533;SDS011;39421;53.204;6.568;2023-07-22T07:11:50;13.23;;;6.63;;
53533;SDS011;39421;53.204;6.568;2023-07-22T07:14:17;15.50;;;7.60;;
53533;SDS011;39421;53.204;6.568;2023-07-22T07:16:43;14.20;;;7.10;;
53533;SDS011;39421;53.204;6.568;2023-07-22T07:19:10;14.13;;;7.00;;
53533;SDS011;39421;53.204;6.568;2023-07-22T07:21:36;14.30;;;6.57;;
53533;SDS011;39421;53.204;6.568;2023-07-22T07:24:02;13.30;;;6.47;;
53533;SDS011;39421;53.204;6.568;2023-07-22T07:26:28;13.70;;;6.63;;
53533;SDS011;39421;53.204;6.568;2023-07-22T07:28:54;15.48;;;6.90;;
53533;SDS011;39421;53.204;6.568;2023-07-22T07:31:20;13.52;;;6.90;;
53533;SDS011;39421;53.204;6.568;2023-07-22T07:33:46;15.43;;;7.47;;
53533;SDS011;39421;53.204;6.568;2023-07-22T07:36:12;13.98;;;7.28;;
53533;SDS011;39421;53.204;6.568;2023-07-22T07:38:39;13.98;;;7.03;;
53533;SDS011;39421;53.204;6.568;2023-07-22T07:41:06;14.45;;;7.22;;
53533;SDS011;39421;53.204;6.568;2023-07-22T07:43:37;15.43;;;7.40;;
53533;SDS011;39421;53.204;6.568;2023-07-22T07:46:13;15.27;;;7.30;;
53533;SDS011;39421;53.204;6.568;2023-07-22T07:48:40;15.37;;;7.93;;
53533;SDS011;39421;53.204;6.568;2023-07-22T07:51:06;15.35;;;7.60;;
53533;SDS011;39421;53.204;6.568;2023-07-22T07:53:32;15.82;;;7.68;;
53533;SDS011;39421;53.204;6.568;2023-07-22T07:55:58;16.73;;;7.68;;
53533;SDS011;39421;53.204;6.568;2023-07-22T07:58:24;14.95;;;7.28;;
53533;SDS011;39421;53.204;6.568;2023-07-22T08:00:50;14.07;;;7.23;;
53533;SDS011;39421;53.204;6.568;2023-07-22T08:03:16;18.38;;;7.60;;
53533;SDS011;39421;53.204;6.568;2023-07-22T08:05:42;14.65;;;7.45;;
53533;SDS011;39421;53.204;6.568;2023-07-22T08:08:08;16.35;;;7.80;;
53533;SDS011;39421;53.204;6.568;2023-07-22T08:10:35;13.98;;;7.60;;
53533;SDS011;39421;53.204;6.568;2023-07-22T08:13:01;14.95;;;7.45;;
53533;SDS011;39421;53.204;6.568;2023-07-22T08:15:28;14.23;;;6.82;;
53533;SDS011;39421;53.204;6.568;2023-07-22T08:17:54;13.52;;;6.95;;
53533;SDS011;39421;53.204;6.568;2023-07-22T08:20:20;15.00;;;7.35;;
53533;SDS011;39421;53.204;6.568;2023-07-22T08:22:46;13.77;;;7.18;;
53533;SDS011;39421;53.204;6.568;2023-07-22T08:25:12;14.52;;;6.95;;
53533;SDS011;39421;53.204;6.568;2023-07-22T08:27:38;12.13;;;6.05;;
53533;SDS011;39421;53.204;6.568;2023-07-22T08:30:05;11.70;;;5.82;;
53533;SDS011;39421;53.204;6.568;2023-07-22T08:32:31;11.40;;;5.57;;
53533;SDS011;39421;53.204;6.568;2023-07-22T08:34:57;12.80;;;6.03;;
53533;SDS011;39421;53.204;6.568;2023-07-22T08:37:23;12.07;;;5.93;;
53533;SDS011;39421;53.204;6.568;2023-07-22T08:39:49;12.83;;;6.23;;
53533;SDS011;39421;53.204;6.568;2023-07-22T08:42:15;12.45;;;6.30;;
53533;SDS011;39421;53.204;6.568;2023-07-22T08:44:44;12.80;;;5.67;;
53533;SDS011;39421;53.204;6.568;2023-07-22T08:47:17;11.07;;;5.55;;
53533;SDS011;39421;53.204;6.568;2023-07-22T08:49:47;11.38;;;5.35;;
53533;SDS011;39421;53.204;6.568;2023-07-22T08:52:16;10.97;;;5.30;;
53533;SDS011;39421;53.204;6.568;2023-07-22T08:54:42;10.07;;;4.78;;
53533;SDS011;39421;53.204;6.568;2023-07-22T08:57:09;9.20;;;4.28;;
53533;SDS011;39421;53.204;6.568;2023-07-22T08:59:36;9.90;;;4.53;;
53533;SDS011;39421;53.204;6.568;2023-07-22T09:02:03;10.45;;;5.25;;
53533;SDS011;39421;53.204;6.568;2023-07-22T09:04:30;10.20;;;4.50;;
53533;SDS011;39421;53.204;6.568;2023-07-22T09:06:56;10.68;;;4.50;;
53533;SDS011;39421;53.204;6.568;2023-07-22T09:09:24;10.20;;;4.50;;
53533;SDS011;39421;53.204;6.568;2023-07-22T09:11:51;9.18;;;4.40;;
53533;SDS011;39421;53.204;6.568;2023-07-22T09:14:18;8.50;;;4.15;;
53533;SDS011;39421;53.204;6.568;2023-07-22T09:16:45;11.37;;;4.90;;
53533;SDS011;39421;53.204;6.568;2023-07-22T09:19:11;10.60;;;4.50;;
53533;SDS011;39421;53.204;6.568;2023-07-22T09:21:38;9.70;;;4.37;;
53533;SDS011;39421;53.204;6.568;2023-07-22T09:24:19;10.55;;;4.28;;
53533;SDS011;39421;53.204;6.568;2023-07-22T09:26:46;12.70;;;4.50;;
53533;SDS011;39421;53.204;6.568;2023-07-22T09:29:12;10.30;;;4.63;;
53533;SDS011;39421;53.204;6.568;2023-07-22T09:31:51;8.80;;;4.00;;
53533;SDS011;39421;53.204;6.568;2023-07-22T09:34:17;9.52;;;4.60;;
53533;SDS011;39421;53.204;6.568;2023-07-22T09:36:54;11.93;;;5.60;;
53533;SDS011;39421;53.204;6.568;2023-07-22T09:39:21;14.50;;;6.40;;
53533;SDS011;39421;53.204;6.568;2023-07-22T09:41:47;13.70;;;7.10;;
53533;SDS011;39421;53.204;6.568;2023-07-22T09:44:17;13.50;;;6.87;;
53533;SDS011;39421;53.204;6.568;2023-07-22T09:46:47;15.30;;;7.65;;
53533;SDS011;39421;53.204;6.568;2023-07-22T09:49:14;15.05;;;7.93;;
53533;SDS011;39421;53.204;6.568;2023-07-22T09:51:41;15.93;;;7.78;;
53533;SDS011;39421;53.204;6.568;2023-07-22T09:54:07;14.80;;;7.40;;
53533;SDS011;39421;53.204;6.568;2023-07-22T09:56:44;12.32;;;6.60;;
53533;SDS011;39421;53.204;6.568;2023-07-22T09:59:10;10.90;;;5.68;;
53533;SDS011;39421;53.204;6.568;2023-07-22T10:01:40;12.27;;;6.05;;
53533;SDS011;39421;53.204;6.568;2023-07-22T10:04:07;11.70;;;6.10;;
53533;SDS011;39421;53.204;6.568;2023-07-22T10:06:34;12.33;;;6.73;;
53533;SDS011;39421;53.204;6.568;2023-07-22T10:09:04;11.47;;;5.87;;
53533;SDS011;39421;53.204;6.568;2023-07-22T10:11:34;11.65;;;5.90;;
53533;SDS011;39421;53.204;6.568;2023-07-22T10:14:04;11.30;;;5.53;;
53533;SDS011;39421;53.204;6.568;2023-07-22T10:16:30;11.60;;;6.10;;
53533;SDS011;39421;53.204;6.568;2023-07-22T10:18:57;11.93;;;6.10;;
53533;SDS011;39421;53.204;6.568;2023-07-22T10:21:24;12.18;;;6.60;;
53533;SDS011;39421;53.204;6.568;2023-07-22T10:23:51;11.73;;;6.20;;
53533;SDS011;39421;53.204;6.568;2023-07-22T10:26:18;11.65;;;6.05;;
53533;SDS011;39421;53.204;6.568;2023-07-22T10:28:45;12.68;;;6.20;;
53533;SDS011;39421;53.204;6.568;2023-07-22T10:31:11;12.73;;;6.63;;
53533;SDS011;39421;53.204;6.568;2023-07-22T10:33:38;11.40;;;6.10;;
53533;SDS011;39421;53.204;6.568;2023-07-22T10:36:06;11.18;;;6.10;;
53533;SDS011;39421;53.204;6.568;2023-07-22T10:38:33;10.67;;;5.70;;
53533;SDS011;39421;53.204;6.568;2023-07-22T10:41:00;11.13;;;6.13;;
53533;SDS011;39421;53.204;6.568;2023-07-22T10:43:27;11.32;;;5.80;;
53533;SDS011;39421;53.204;6.568;2023-07-22T10:45:54;12.07;;;6.05;;
53533;SDS011;39421;53.204;6.568;2023-07-22T10:48:22;10.95;;;6.03;;
53533;SDS011;39421;53.204;6.568;2023-07-22T10:50:52;11.27;;;6.22;;
53533;SDS011;39421;53.204;6.568;2023-07-22T10:56:04;11.15;;;5.72;;
53533;SDS011;39421;53.204;6.568;2023-07-22T10:58:37;11.13;;;5.80;;
53533;SDS011;39421;53.204;6.568;2023-07-22T11:01:24;10.80;;;5.60;;
53533;SDS011;39421;53.204;6.568;2023-07-22T11:04:12;10.50;;;5.17;;
53533;SDS011;39421;53.204;6.568;2023-07-22T11:06:40;9.43;;;4.88;;
53533;SDS011;39421;53.204;6.568;2023-07-22T11:11:53;10.65;;;5.50;;
53533;SDS011;39421;53.204;6.568;2023-07-22T11:14:22;11.63;;;5.60;;
53533;SDS011;39421;53.204;6.568;2023-07-22T11:16:48;10.95;;;5.60;;
53533;SDS011;39421;53.204;6.568;2023-07-22T11:19:15;10.60;;;5.38;;
53533;SDS011;39421;53.204;6.568;2023-07-22T11:21:41;10.18;;;5.68;;
53533;SDS011;39421;53.204;6.568;2023-07-22T11:24:08;10.10;;;5.43;;
53533;SDS011;39421;53.204;6.568;2023-07-22T11:26:34;10.68;;;5.90;;
53533;SDS011;39421;53.204;6.568;2023-07-22T11:29:01;10.55;;;5.70;;
53533;SDS011;39421;53.204;6.568;2023-07-22T11:31:34;12.15;;;5.95;;
53533;SDS011;39421;53.204;6.568;2023-07-22T11:34:02;11.57;;;6.05;;
53533;SDS011;39421;53.204;6.568;2023-07-22T11:36:29;11.23;;;6.10;;
53533;SDS011;39421;53.204;6.568;2023-07-22T11:39:02;11.63;;;6.37;;
53533;SDS011;39421;53.204;6.568;2023-07-22T11:41:29;11.10;;;6.53;;
53533;SDS011;39421;53.204;6.568;2023-07-22T11:43:59;11.50;;;6.28;;
53533;SDS011;39421;53.204;6.568;2023-07-22T11:46:26;12.03;;;6.83;;
53533;SDS011;39421;53.204;6.568;2023-07-22T11:48:52;13.48;;;7.40;;
53533;SDS011;39421;53.204;6.568;2023-07-22T11:51:22;12.95;;;7.38;;
53533;SDS011;39421;53.204;6.568;2023-07-22T11:53:53;13.87;;;7.90;;
53533;SDS011;39421;53.204;6.568;2023-07-22T11:56:23;14.75;;;8.35;;
53533;SDS011;39421;53.204;6.568;2023-07-22T11:58:56;13.93;;;7.90;;
53533;SDS011;39421;53.204;6.568;2023-07-22T12:01:23;14.00;;;8.30;;
53533;SDS011;39421;53.204;6.568;2023-07-22T12:03:49;16.33;;;8.70;;
53533;SDS011;39421;53.204;6.568;2023-07-22T12:06:21;13.70;;;8.20;;
53533;SDS011;39421;53.204;6.568;2023-07-22T12:08:51;14.60;;;8.80;;
53533;SDS011;39421;53.204;6.568;2023-07-22T12:11:21;14.07;;;8.50;;
53533;SDS011;39421;53.204;6.568;2023-07-22T12:13:49;13.60;;;8.55;;
53533;SDS011;39421;53.204;6.568;2023-07-22T12:16:22;13.50;;;8.23;;
53533;SDS011;39421;53.204;6.568;2023-07-22T12:18:54;14.20;;;8.70;;
53533;SDS011;39421;53.204;6.568;2023-07-22T12:21:21;14.10;;;9.05;;
53533;SDS011;39421;53.204;6.568;2023-07-22T12:23:47;14.82;;;9.35;;
53533;SDS011;39421;53.204;6.568;2023-07-22T12:26:13;14.47;;;9.00;;
53533;SDS011;39421;53.204;6.568;2023-07-22T12:28:40;14.38;;;9.10;;
53533;SDS011;39421;53.204;6.568;2023-07-22T12:31:06;13.85;;;8.80;;
53533;SDS011;39421;53.204;6.568;2023-07-22T12:33:32;14.85;;;9.30;;
53533;SDS011;39421;53.204;6.568;2023-07-22T12:35:58;15.77;;;9.93;;
53533;SDS011;39421;53.204;6.568;2023-07-22T12:38:24;16.92;;;9.88;;
53533;SDS011;39421;53.204;6.568;2023-07-22T12:40:50;15.60;;;10.17;;
53533;SDS011;39421;53.204;6.568;2023-07-22T12:43:16;15.35;;;9.57;;
53533;SDS011;39421;53.204;6.568;2023-07-22T12:45:42;17.65;;;10.38;;
53533;SDS011;39421;53.204;6.568;2023-07-22T12:48:09;17.80;;;10.95;;
53533;SDS011;39421;53.204;6.568;2023-07-22T12:50:35;16.35;;;10.35;;
53533;SDS011;39421;53.204;6.568;2023-07-22T12:53:02;15.50;;;9.57;;
53533;SDS011;39421;53.204;6.568;2023-07-22T12:55:28;14.57;;;8.97;;
53533;SDS011;39421;53.204;6.568;2023-07-22T12:57:55;15.07;;;9.13;;
53533;SDS011;39421;53.204;6.568;2023-07-22T13:00:21;14.20;;;9.02;;
53533;SDS011;39421;53.204;6.568;2023-07-22T13:02:47;13.85;;;8.68;;
53533;SDS011;39421;53.204;6.568;2023-07-22T13:05:14;14.83;;;8.80;;
53533;SDS011;39421;53.204;6.568;2023-07-22T13:07:40;14.93;;;9.27;;
53533;SDS011;39421;53.204;6.568;2023-07-22T13:10:06;13.40;;;8.70;;
53533;SDS011;39421;53.204;6.568;2023-07-22T13:12:36;12.63;;;7.85;;
53533;SDS011;39421;53.204;6.568;2023-07-22T13:15:03;14.47;;;8.83;;
53533;SDS011;39421;53.204;6.568;2023-07-22T13:17:29;13.30;;;8.85;;
53533;SDS011;39421;53.204;6.568;2023-07-22T13:19:55;15.68;;;9.38;;
53533;SDS011;39421;53.204;6.568;2023-07-22T13:22:21;15.02;;;9.57;;
53533;SDS011;39421;53.204;6.568;2023-07-22T13:24:47;14.73;;;9.50;;
53533;SDS011;39421;53.204;6.568;2023-07-22T13:27:13;16.83;;;10.25;;
53533;SDS011;39421;53.204;6.568;2023-07-22T13:29:39;14.30;;;9.20;;
53533;SDS011;39421;53.204;6.568;2023-07-22T13:32:06;15.35;;;9.68;;
53533;SDS011;39421;53.204;6.568;2023-07-22T13:34:32;14.88;;;9.55;;
53533;SDS011;39421;53.204;6.568;2023-07-22T13:36:58;15.70;;;9.50;;
53533;SDS011;39421;53.204;6.568;2023-07-22T13:39:26;15.45;;;9.85;;
53533;SDS011;39421;53.204;6.568;2023-07-22T13:41:53;14.43;;;10.20;;
53533;SDS011;39421;53.204;6.568;2023-07-22T13:44:19;15.73;;;10.20;;
53533;SDS011;39421;53.204;6.568;2023-07-22T13:46:45;17.33;;;10.93;;
53533;SDS011;39421;53.204;6.568;2023-07-22T13:49:11;15.82;;;11.02;;
53533;SDS011;39421;53.204;6.568;2023-07-22T13:51:37;16.48;;;10.95;;
53533;SDS011;39421;53.204;6.568;2023-07-22T13:54:03;14.32;;;9.27;;
53533;SDS011;39421;53.204;6.568;2023-07-22T13:56:29;15.23;;;9.95;;
53533;SDS011;39421;53.204;6.568;2023-07-22T13:58:55;15.33;;;9.97;;
53533;SDS011;39421;53.204;6.568;2023-07-22T14:01:23;16.38;;;10.27;;
53533;SDS011;39421;53.204;6.568;2023-07-22T14:03:49;14.23;;;9.50;;
53533;SDS011;39421;53.204;6.568;2023-07-22T14:06:15;14.90;;;9.90;;
53533;SDS011;39421;53.204;6.568;2023-07-22T14:08:41;14.53;;;9.73;;
53533;SDS011;39421;53.204;6.568;2023-07-22T14:11:08;14.82;;;9.27;;
53533;SDS011;39421;53.204;6.568;2023-07-22T14:13:34;14.90;;;9.60;;
53533;SDS011;39421;53.204;6.568;2023-07-22T14:16:01;15.27;;;9.60;;
53533;SDS011;39421;53.204;6.568;2023-07-22T14:18:27;14.32;;;9.45;;
53533;SDS011;39421;53.204;6.568;2023-07-22T14:20:53;13.57;;;9.40;;
53533;SDS011;39421;53.204;6.568;2023-07-22T14:23:19;13.30;;;8.13;;
53533;SDS011;39421;53.204;6.568;2023-07-22T14:25:45;13.73;;;9.00;;
53533;SDS011;39421;53.204;6.568;2023-07-22T14:28:11;14.43;;;8.60;;
53533;SDS011;39421;53.204;6.568;2023-07-22T14:30:38;12.90;;;8.48;;
53533;SDS011;39421;53.204;6.568;2023-07-22T14:33:04;13.15;;;8.30;;
53533;SDS011;39421;53.204;6.568;2023-07-22T14:35:30;14.30;;;8.10;;
53533;SDS011;39421;53.204;6.568;2023-07-22T14:38:00;13.57;;;8.05;;
53533;SDS011;39421;53.204;6.568;2023-07-22T14:40:26;14.40;;;8.52;;
53533;SDS011;39421;53.204;6.568;2023-07-22T14:42:52;12.67;;;8.03;;